Time;durP1;ratioP1;P1;durP2;ratioP2;P2;SDS_P1;SDS_P2;PMS_P1;PMS_P2;Temp;Humidity;BMP_temperature;BMP_pressure;BME280_temperature;BME280_humidity;BME280_pressure;Samples;Min_cycle;Max_cycle;Signal;HPM_P1;HPM_P2
2022/07/20 00:01:21;;;;;;;3.17;2.02;;;;;;;26.77;36.01;101231.41;1758836;80;21169;-88
2022/07/20 00:03:47;;;;;;;3.02;2.00;;;;;;;26.76;36.02;101227.56;1759225;80;21049;-88
2022/07/20 00:06:14;;;;;;;5.65;2.05;;;;;;;26.77;36.04;101230.59;1758994;80;21528;-89
2022/07/20 00:11:25;;;;;;;2.42;1.60;;;;;;;26.76;36.05;101221.98;1759297;81;21019;-88
2022/07/20 00:13:59;;;;;;;3.67;1.85;;;;;;;26.76;36.04;101223.37;1758809;80;21619;-87
2022/07/20 00:16:26;;;;;;;3.15;2.00;;;;;;;26.75;36.05;101216.98;1759142;80;21035;-84
2022/07/20 00:18:53;;;;;;;3.17;1.82;;;;;;;26.76;36.07;101223.37;1759158;80;21623;-87
2022/07/20 00:21:25;;;;;;;2.83;1.72;;;;;;;26.74;36.08;101219.53;1758748;80;21050;-83
2022/07/20 00:23:51;;;;;;;2.83;1.77;;;;;;;26.76;36.08;101216.41;1759353;80;21505;-88
2022/07/20 00:26:18;;;;;;;4.87;2.25;;;;;;;26.75;36.12;101216.98;1759194;80;21786;-88
2022/07/20 00:28:44;;;;;;;3.92;1.72;;;;;;;26.75;36.12;101212.80;1758843;80;21025;-87
2022/07/20 00:31:10;;;;;;;4.17;1.85;;;;;;;26.75;36.13;101214.77;1758956;80;21113;-87
2022/07/20 00:33:37;;;;;;;3.05;1.87;;;;;;;26.75;36.14;101216.98;1759099;80;21006;-88
2022/07/20 00:36:10;;;;;;;3.70;1.70;;;;;;;26.75;36.17;101214.19;1758610;80;21037;-89
2022/07/20 00:38:36;;;;;;;5.10;1.85;;;;;;;26.76;36.17;101216.41;1758721;80;21167;-88
2022/07/20 00:41:02;;;;;;;3.05;1.80;;;;;;;26.75;36.17;101215.58;1758815;81;21453;-89
2022/07/20 00:43:49;;;;;;;4.17;2.30;;;;;;;26.74;36.19;101208.37;1758858;80;20888;-85
2022/07/20 00:46:16;;;;;;;4.12;1.85;;;;;;;26.75;36.20;101206.39;1758761;80;21007;-88
2022/07/20 00:48:42;;;;;;;3.52;2.02;;;;;;;26.74;36.20;101204.18;1758849;80;21113;-88
2022/07/20 00:51:08;;;;;;;4.55;2.27;;;;;;;26.74;36.22;101200.57;1758829;80;21871;-88
2022/07/20 00:53:35;;;;;;;2.42;1.70;;;;;;;26.75;36.26;101200.81;1758854;80;21074;-88
2022/07/20 00:56:02;;;;;;;3.08;1.95;;;;;;;26.74;36.26;101197.20;1758671;80;20979;-87
2022/07/20 00:58:28;;;;;;;5.62;1.87;;;;;;;26.75;36.27;101202.20;1758947;80;21038;-88
2022/07/20 01:00:55;;;;;;;4.60;2.33;;;;;;;26.74;36.28;101201.39;1758984;80;21458;-88
2022/07/20 01:03:21;;;;;;;3.62;2.05;;;;;;;26.74;36.28;101202.78;1758851;80;21923;-87
2022/07/20 01:05:48;;;;;;;3.72;1.80;;;;;;;26.73;36.29;101196.17;1758930;80;21030;-87
2022/07/20 01:08:14;;;;;;;3.60;1.50;;;;;;;26.72;36.29;101198.15;1759141;80;21540;-87
2022/07/20 01:10:41;;;;;;;3.80;1.62;;;;;;;26.74;36.31;101196.38;1758762;81;20999;-87
2022/07/20 01:13:08;;;;;;;2.95;1.72;;;;;;;26.73;36.32;101201.14;1759222;80;21409;-87
2022/07/20 01:15:34;;;;;;;2.70;1.70;;;;;;;26.73;36.33;101192.77;1759199;80;21742;-88
2022/07/20 01:18:01;;;;;;;3.65;1.90;;;;;;;26.74;36.34;101197.78;1758878;80;21069;-87
2022/07/20 01:20:27;;;;;;;2.47;1.50;;;;;;;26.73;36.37;101196.17;1759198;80;21031;-88
2022/07/20 01:22:53;;;;;;;6.17;2.17;;;;;;;26.74;36.37;101201.97;1759185;80;21522;-88
2022/07/20 01:25:20;;;;;;;3.12;1.92;;;;;;;26.74;36.38;101194.98;1758995;80;20972;-85
2022/07/20 01:27:46;;;;;;;4.22;1.90;;;;;;;26.73;36.39;101194.78;1759174;81;21120;-88
2022/07/20 01:30:12;;;;;;;2.90;1.65;;;;;;;26.73;36.42;101202.55;1759255;80;21033;-89
2022/07/20 01:32:39;;;;;;;3.02;1.90;;;;;;;26.73;36.43;101201.75;1759116;80;20948;-85
2022/07/20 01:35:06;;;;;;;5.10;2.20;;;;;;;26.73;36.44;101205.95;1759313;81;21081;-88
2022/07/20 01:37:33;;;;;;;3.42;1.90;;;;;;;26.73;36.45;101215.10;1759436;81;21054;-87
2022/07/20 01:39:59;;;;;;;4.55;2.00;;;;;;;26.72;36.45;101206.52;1759083;80;21884;-88
2022/07/20 01:42:26;;;;;;;3.05;1.60;;;;;;;26.73;36.47;101206.73;1759232;80;21022;-86
2022/07/20 01:44:52;;;;;;;4.55;1.72;;;;;;;26.73;36.47;101207.34;1759186;80;21579;-88
2022/07/20 01:47:18;;;;;;;3.00;1.90;;;;;;;26.72;36.48;101205.12;1758968;80;21481;-88
2022/07/20 01:49:45;;;;;;;3.85;2.00;;;;;;;26.73;36.50;101208.73;1759101;80;21014;-86
2022/07/20 01:52:12;;;;;;;2.85;1.72;;;;;;;26.72;36.51;101205.70;1759244;80;21127;-88
2022/07/20 01:54:38;;;;;;;9.43;2.27;;;;;;;26.72;36.51;101205.12;1758857;80;21274;-88
2022/07/20 01:57:05;;;;;;;4.10;1.90;;;;;;;26.72;36.53;101209.31;1759105;80;21026;-86
2022/07/20 01:59:31;;;;;;;6.85;2.20;;;;;;;26.69;36.55;101200.83;1759040;80;21065;-85
2022/07/20 02:01:57;;;;;;;3.98;2.12;;;;;;;26.65;36.53;101202.09;1758846;80;21120;-86
2022/07/20 02:04:24;;;;;;;5.80;2.80;;;;;;;26.58;36.50;101197.68;1759172;80;21438;-87
2022/07/20 02:06:50;;;;;;;5.20;2.50;;;;;;;26.53;36.50;101201.27;1759138;80;21066;-86
2022/07/20 02:09:17;;;;;;;5.40;2.33;;;;;;;26.38;36.47;101197.80;1758793;80;21360;-87
2022/07/20 02:11:43;;;;;;;4.47;1.87;;;;;;;26.14;36.65;101202.73;1759009;81;21031;-85
2022/07/20 02:14:09;;;;;;;9.23;2.98;;;;;;;25.90;36.96;101208.48;1758604;80;21010;-85
2022/07/20 02:16:36;;;;;;;11.70;2.92;;;;;;;25.69;37.25;101199.92;1758134;80;21927;-86
2022/07/20 02:19:02;;;;;;;9.48;2.80;;;;;;;25.57;37.50;101209.63;1758676;80;20994;-86
2022/07/20 02:21:29;;;;;;;7.50;2.70;;;;;;;25.51;37.64;101203.98;1759037;80;21085;-86
2022/07/20 02:23:55;;;;;;;10.80;3.33;;;;;;;25.54;37.75;101204.75;1758015;80;22341;-85
2022/07/20 02:26:22;;;;;;;9.88;2.58;;;;;;;25.53;37.77;101208.11;1758516;80;21057;-85
2022/07/20 02:28:48;;;;;;;9.58;2.77;;;;;;;25.49;37.87;101204.35;1759225;80;21081;-85
2022/07/20 02:31:15;;;;;;;7.83;2.70;;;;;;;25.40;38.11;101211.96;1758705;80;21033;-87
2022/07/20 02:33:41;;;;;;;7.15;2.60;;;;;;;25.30;38.33;101213.18;1758445;80;22159;-86
2022/07/20 02:36:08;;;;;;;7.70;2.92;;;;;;;25.33;38.34;101218.06;1758265;80;21082;-87
2022/07/20 02:38:34;;;;;;;6.30;2.70;;;;;;;25.37;38.39;101218.22;1758679;80;21543;-86
2022/07/20 02:41:01;;;;;;;6.65;2.60;;;;;;;25.30;38.50;101218.75;1758079;80;21062;-87
2022/07/20 02:43:27;;;;;;;6.70;3.00;;;;;;;25.22;38.69;101211.28;1758886;80;21007;-85
2022/07/20 02:45:54;;;;;;;8.90;3.87;;;;;;;25.14;38.96;101209.38;1758830;80;21046;-87
2022/07/20 02:48:20;;;;;;;9.38;3.50;;;;;;;25.04;39.15;101209.77;1758920;80;21003;-85
2022/07/20 02:50:46;;;;;;;8.18;2.90;;;;;;;24.90;39.33;101214.80;1756152;80;21058;-86
2022/07/20 02:53:13;;;;;;;12.13;3.30;;;;;;;24.79;39.54;101222.67;1722990;81;21335;-87
2022/07/20 02:55:41;;;;;;;10.05;3.00;;;;;;;24.78;39.59;101226.59;1751510;80;21097;-85
2022/07/20 02:58:08;;;;;;;4.35;2.35;;;;;;;24.88;39.60;101231.00;1751283;80;21137;-84
2022/07/20 03:00:40;;;;;;;9.13;3.30;;;;;;;24.95;39.60;101228.52;1750694;80;21105;-87
2022/07/20 03:03:08;;;;;;;8.55;3.85;;;;;;;25.00;39.54;101230.52;1751355;80;21051;-85
2022/07/20 03:05:34;;;;;;;10.32;3.40;;;;;;;25.01;39.37;101240.50;1721746;82;22117;-86
2022/07/20 03:08:01;;;;;;;7.90;3.20;;;;;;;25.03;39.26;101236.00;1744203;80;21323;-85
2022/07/20 03:10:27;;;;;;;15.83;3.70;;;;;;;25.04;39.21;101234.83;1748782;80;21079;-86
2022/07/20 03:12:54;;;;;;;8.95;3.87;;;;;;;25.04;39.18;101240.39;1736601;80;21023;-86
2022/07/20 03:15:20;;;;;;;12.25;3.30;;;;;;;25.05;39.20;101232.86;1751479;80;21015;-86
2022/07/20 03:17:52;;;;;;;12.07;3.40;;;;;;;25.08;39.18;101236.38;1751818;81;21119;-85
2022/07/20 03:20:26;;;;;;;11.80;3.77;;;;;;;25.10;39.16;101226.52;1751684;80;21090;-85
2022/07/20 03:22:52;;;;;;;13.08;3.15;;;;;;;25.07;39.19;101239.73;1751099;80;21521;-86
2022/07/20 03:25:19;;;;;;;9.65;3.20;;;;;;;25.05;39.22;101232.28;1753863;80;21007;-85
2022/07/20 03:27:45;;;;;;;10.15;3.67;;;;;;;25.06;39.24;101238.09;1754511;79;21062;-85
2022/07/20 03:30:13;;;;;;;9.85;3.47;;;;;;;25.10;39.24;101239.05;1750987;80;21022;-85
2022/07/20 03:32:39;;;;;;;9.28;3.22;;;;;;;25.12;39.26;101244.30;1751138;80;21136;-85
2022/07/20 03:35:06;;;;;;;13.30;3.25;;;;;;;25.16;39.28;101251.64;1755383;81;21033;-85
2022/07/20 03:37:32;;;;;;;7.55;3.50;;;;;;;25.21;39.33;101260.34;1753227;80;21030;-86
2022/07/20 03:39:59;;;;;;;12.25;3.80;;;;;;;25.23;39.39;101255.27;1692103;83;21050;-86
2022/07/20 03:42:25;;;;;;;9.40;3.15;;;;;;;25.26;39.48;101254.58;1747931;80;20996;-89
2022/07/20 03:44:51;;;;;;;9.80;3.70;;;;;;;25.23;39.63;101245.52;1738920;80;21007;-85
2022/07/20 03:47:18;;;;;;;10.63;3.77;;;;;;;25.24;39.72;101248.55;1751317;80;21097;-86
2022/07/20 03:49:45;;;;;;;10.25;3.25;;;;;;;25.25;39.76;101244.62;1750371;80;21272;-85
2022/07/20 03:52:11;;;;;;;9.08;3.35;;;;;;;25.28;39.80;101243.93;1748880;80;21055;-81
2022/07/20 03:54:38;;;;;;;15.40;3.40;;;;;;;25.31;39.77;101238.49;1711643;82;21194;-84
2022/07/20 03:57:04;;;;;;;9.90;3.77;;;;;;;25.31;39.80;101234.89;1689997;84;21056;-81
2022/07/20 03:59:30;;;;;;;10.68;3.58;;;;;;;25.32;39.78;101234.56;1707611;82;21079;-84
2022/07/20 04:01:57;;;;;;;9.15;3.75;;;;;;;25.34;39.79;101235.02;1693892;83;21111;-85
2022/07/20 04:04:24;;;;;;;11.12;3.83;;;;;;;25.32;39.77;101235.95;1693059;83;21051;-81
2022/07/20 04:06:50;;;;;;;11.33;3.40;;;;;;;25.25;39.79;101235.66;1694298;84;22019;-82
2022/07/20 04:09:43;;;;;;;7.92;3.15;;;;;;;25.24;39.78;101233.23;1695940;82;21067;-82
2022/07/20 04:11:45;;;;;;;11.57;3.65;;;;;;;25.16;39.76;101236.33;1692296;83;21134;-82
2022/07/20 04:14:11;;;;;;;6.60;2.80;;;;;;;25.10;39.77;101227.09;1728947;81;21047;-82
2022/07/20 04:16:38;;;;;;;9.20;3.40;;;;;;;25.08;39.72;101235.78;1733411;81;21563;-83
2022/07/20 04:19:05;;;;;;;13.95;3.65;;;;;;;25.07;39.67;101233.35;1728136;81;21645;-87
2022/07/20 04:21:31;;;;;;;6.95;3.35;;;;;;;25.03;39.68;101226.83;1724775;81;21052;-83
2022/07/20 04:23:58;;;;;;;9.65;3.50;;;;;;;24.97;39.71;101228.98;1724486;81;21643;-81
2022/07/20 04:26:24;;;;;;;10.30;3.85;;;;;;;24.97;39.79;101230.37;1726029;81;21038;-82
2022/07/20 04:28:52;;;;;;;12.20;4.12;;;;;;;25.02;39.72;101232.97;1711612;81;21026;-82
2022/07/20 04:31:19;;;;;;;10.58;3.75;;;;;;;25.08;39.63;101233.00;1701730;82;21450;-84
2022/07/20 04:33:45;;;;;;;7.10;3.50;;;;;;;25.13;39.54;101231.98;1728477;81;21052;-82
2022/07/20 04:36:12;;;;;;;7.80;3.75;;;;;;;25.19;39.46;101234.25;1730689;81;21028;-81
2022/07/20 04:38:38;;;;;;;10.93;3.45;;;;;;;25.23;39.41;101236.59;1729929;81;21064;-82
2022/07/20 04:41:05;;;;;;;10.75;3.50;;;;;;;25.28;39.30;101232.22;1727003;81;21035;-81
2022/07/20 04:43:31;;;;;;;7.65;2.87;;;;;;;25.33;39.21;101232.59;1728503;81;21565;-81
2022/07/20 04:45:58;;;;;;;12.63;3.65;;;;;;;25.35;39.11;101229.70;1742711;81;21653;-82
2022/07/20 04:48:27;;;;;;;8.18;3.52;;;;;;;25.37;39.10;101232.97;1744100;80;21106;-81
2022/07/20 04:50:53;;;;;;;9.88;3.33;;;;;;;25.41;39.09;101233.92;1734119;80;21095;-82
2022/07/20 04:53:20;;;;;;;9.30;3.87;;;;;;;25.46;39.08;101235.08;1747880;79;21064;-83
2022/07/20 04:55:46;;;;;;;12.93;4.85;;;;;;;25.51;39.05;101233.24;1739487;80;21092;-83
2022/07/20 04:58:13;;;;;;;13.58;4.72;;;;;;;25.56;39.08;101238.64;1736440;82;21044;-82
2022/07/20 05:00:40;;;;;;;11.97;5.55;;;;;;;25.58;39.09;101239.14;1701185;82;21156;-82
2022/07/20 05:03:06;;;;;;;16.75;5.67;;;;;;;25.61;39.13;101240.66;1766451;78;21069;-80
2022/07/20 05:05:33;;;;;;;10.45;5.35;;;;;;;25.62;39.10;101232.54;1766313;78;21629;-82
2022/07/20 05:07:59;;;;;;;19.10;7.28;;;;;;;25.63;39.13;101240.33;1766245;80;21509;-82
2022/07/20 05:10:33;;;;;;;17.70;7.15;;;;;;;25.65;39.17;101240.20;1752608;80;21102;-79
2022/07/20 05:12:59;;;;;;;14.47;5.47;;;;;;;25.68;39.20;101236.73;1759264;80;21023;-81
2022/07/20 05:15:26;;;;;;;27.50;5.50;;;;;;;25.71;39.21;101242.22;1758458;80;21551;-82
2022/07/20 05:17:52;;;;;;;20.00;6.87;;;;;;;25.72;39.22;101243.25;1757208;80;21535;-81
2022/07/20 05:20:19;;;;;;;18.92;6.33;;;;;;;25.74;39.22;101244.31;1756460;80;21386;-81
2022/07/20 05:22:45;;;;;;;22.25;5.70;;;;;;;25.76;39.20;101246.98;1757479;80;21094;-80
2022/07/20 05:25:12;;;;;;;14.55;4.50;;;;;;;25.79;39.21;101250.50;1762435;80;21050;-81
2022/07/20 05:27:38;;;;;;;14.73;4.40;;;;;;;25.80;39.22;101252.10;1759096;80;21525;-80
2022/07/20 05:30:06;;;;;;;15.43;4.75;;;;;;;25.83;39.26;101254.80;1767536;80;21124;-82
2022/07/20 05:32:38;;;;;;;17.17;4.83;;;;;;;25.86;39.27;101248.53;1756364;80;21542;-81
2022/07/20 05:35:06;;;;;;;14.90;4.50;;;;;;;25.87;39.26;101254.35;1734402;80;21057;-81
2022/07/20 05:37:38;;;;;;;9.17;3.57;;;;;;;25.88;39.25;101257.38;1739015;80;21089;-80
2022/07/20 05:40:06;;;;;;;8.88;3.35;;;;;;;25.88;39.28;101258.78;1756319;80;21767;-81
2022/07/20 05:42:32;;;;;;;10.18;3.60;;;;;;;25.90;39.29;101253.66;1766798;80;21099;-79
2022/07/20 05:44:58;;;;;;;10.75;3.75;;;;;;;25.91;39.26;101256.69;1757901;80;21342;-80
2022/07/20 05:47:25;;;;;;;15.45;3.50;;;;;;;25.92;39.25;101263.91;1757200;80;21073;-80
2022/07/20 05:49:51;;;;;;;16.77;3.87;;;;;;;25.92;39.22;101256.93;1754698;80;21118;-80
2022/07/20 05:52:18;;;;;;;8.78;3.22;;;;;;;25.93;39.16;101258.54;1756219;80;21667;-81
2022/07/20 05:54:44;;;;;;;13.58;3.90;;;;;;;25.93;39.16;101257.75;1778530;80;21043;-81
2022/07/20 05:57:11;;;;;;;10.25;3.35;;;;;;;25.93;39.11;101261.33;1754666;80;20963;-81
2022/07/20 05:59:37;;;;;;;13.62;3.65;;;;;;;25.94;39.03;101264.36;1754296;80;21085;-81
2022/07/20 06:02:04;;;;;;;7.10;2.98;;;;;;;25.95;38.97;101263.78;1760998;80;21071;-81
2022/07/20 06:04:30;;;;;;;11.12;3.50;;;;;;;25.96;38.95;101265.42;1761311;80;21094;-80
2022/07/20 06:06:57;;;;;;;12.10;3.40;;;;;;;25.96;38.89;101264.84;1756812;80;21156;-81
2022/07/20 06:09:23;;;;;;;12.18;3.52;;;;;;;25.98;38.87;101262.52;1746585;80;21081;-82
2022/07/20 06:11:50;;;;;;;11.88;3.22;;;;;;;26.00;38.79;101260.20;1752170;80;21070;-84
2022/07/20 06:14:16;;;;;;;17.57;3.40;;;;;;;26.01;38.69;101267.42;1743404;80;21117;-80
2022/07/20 06:16:43;;;;;;;11.45;3.55;;;;;;;26.01;38.61;101263.23;1757522;80;21655;-81
2022/07/20 06:19:09;;;;;;;16.20;3.70;;;;;;;26.02;38.51;101266.81;1757691;78;21152;-82
2022/07/20 06:21:36;;;;;;;15.20;3.33;;;;;;;26.03;38.43;101265.67;1760600;80;21191;-81
2022/07/20 06:24:03;;;;;;;17.17;3.47;;;;;;;26.03;38.34;101264.27;1757068;80;21066;-81
2022/07/20 06:26:29;;;;;;;10.35;2.80;;;;;;;26.03;38.25;101260.91;1756991;80;21022;-82
2022/07/20 06:28:56;;;;;;;10.08;3.00;;;;;;;26.05;38.21;101257.78;1753957;80;21443;-81
2022/07/20 06:31:23;;;;;;;9.30;3.05;;;;;;;26.06;38.21;101260.79;1759840;80;21630;-80
2022/07/20 06:33:49;;;;;;;14.95;3.47;;;;;;;26.07;38.16;101258.24;1763600;80;21720;-82
2022/07/20 06:36:16;;;;;;;17.60;3.17;;;;;;;26.08;38.09;101259.88;1757167;80;21066;-83
2022/07/20 06:38:42;;;;;;;10.95;2.83;;;;;;;26.09;38.02;101258.73;1734760;81;21118;-82
2022/07/20 06:41:09;;;;;;;12.05;3.05;;;;;;;26.10;37.95;101259.76;1756609;80;21549;-82
2022/07/20 06:43:36;;;;;;;14.03;3.37;;;;;;;26.11;37.89;101253.03;1764338;80;21008;-83
2022/07/20 06:46:02;;;;;;;15.32;3.62;;;;;;;26.12;37.83;101253.27;1754005;80;21810;-84
2022/07/20 06:48:28;;;;;;;9.85;2.72;;;;;;;26.15;37.80;101257.33;1753083;78;21054;-83
2022/07/20 06:50:55;;;;;;;7.75;3.62;;;;;;;26.18;37.79;101258.06;1729714;80;21637;-81
2022/07/20 06:53:23;;;;;;;10.40;3.02;;;;;;;26.18;37.78;101260.23;1741193;80;21113;-85
2022/07/20 06:55:49;;;;;;;12.68;3.25;;;;;;;26.20;37.89;101259.36;1738959;80;21098;-84
2022/07/20 06:58:16;;;;;;;9.48;2.92;;;;;;;26.22;37.82;101262.64;1749305;80;21115;-85
2022/07/20 07:00:42;;;;;;;8.35;3.05;;;;;;;26.24;37.70;101262.27;1748874;80;21552;-85
2022/07/20 07:03:08;;;;;;;14.65;3.45;;;;;;;26.25;37.54;101266.12;1747386;80;21058;-84
2022/07/20 07:05:35;;;;;;;6.85;2.70;;;;;;;26.26;37.42;101264.97;1730952;81;21031;-87
2022/07/20 07:08:01;;;;;;;8.83;2.45;;;;;;;26.27;37.34;101266.58;1751441;80;21141;-85
2022/07/20 07:10:28;;;;;;;8.78;2.25;;;;;;;26.28;37.16;101259.84;1752224;81;21062;-86
2022/07/20 07:12:55;;;;;;;10.90;2.58;;;;;;;26.30;37.00;101259.51;1750754;80;21113;-84
2022/07/20 07:15:21;;;;;;;5.37;2.20;;;;;;;26.30;36.92;101256.72;1749758;80;21058;-85
2022/07/20 07:17:48;;;;;;;10.13;2.62;;;;;;;26.32;36.75;101256.59;1739981;80;21494;-84
2022/07/20 07:20:14;;;;;;;11.38;2.65;;;;;;;26.32;36.55;101255.20;1752898;80;21082;-86
2022/07/20 07:22:41;;;;;;;8.63;2.60;;;;;;;26.34;36.37;101255.69;1690430;83;21079;-85
2022/07/20 07:25:08;;;;;;;8.35;2.10;;;;;;;26.35;36.17;101248.92;1712276;81;21080;-86
2022/07/20 07:27:35;;;;;;;6.42;2.55;;;;;;;26.35;36.05;101241.95;1748191;80;21099;-85
2022/07/20 07:30:03;;;;;;;6.20;2.37;;;;;;;26.36;35.97;101244.98;1749930;80;21062;-83
2022/07/20 07:32:29;;;;;;;11.08;2.15;;;;;;;26.37;35.86;101244.40;1748068;80;21051;-87
2022/07/20 07:34:56;;;;;;;8.38;2.77;;;;;;;26.38;35.67;101240.45;1754236;80;21311;-86
2022/07/20 07:37:22;;;;;;;5.35;2.47;;;;;;;26.40;35.42;101241.48;1745074;80;21473;-85
2022/07/20 07:39:49;;;;;;;5.20;2.20;;;;;;;26.40;35.14;101238.13;1750206;82;21517;-85
2022/07/20 07:42:15;;;;;;;3.72;1.90;;;;;;;26.41;34.74;101240.33;1751511;80;20969;-86
2022/07/20 07:44:42;;;;;;;5.45;2.17;;;;;;;26.41;34.50;101241.16;1748316;80;21065;-84
2022/07/20 07:47:08;;;;;;;5.53;2.37;;;;;;;26.42;34.32;101233.59;1750005;80;21187;-86
2022/07/20 07:49:35;;;;;;;6.03;2.42;;;;;;;26.43;34.13;101236.05;1744745;80;20976;-85
2022/07/20 07:52:01;;;;;;;3.80;2.25;;;;;;;26.44;34.06;101231.29;1748561;80;21070;-80
2022/07/20 07:54:33;;;;;;;5.83;2.22;;;;;;;26.46;34.24;101236.75;1757138;80;21077;-82
2022/07/20 07:57:00;;;;;;;9.80;3.30;;;;;;;26.48;34.42;101233.01;1756390;80;21539;-85
2022/07/20 07:59:28;;;;;;;7.17;3.30;;;;;;;26.50;34.35;101236.86;1750393;81;21724;-85
2022/07/20 08:01:54;;;;;;;9.40;3.22;;;;;;;26.52;34.33;101227.58;1753183;80;21066;-85
2022/07/20 08:04:21;;;;;;;6.58;2.85;;;;;;;26.53;34.33;101231.39;1727070;81;21039;-83
2022/07/20 08:06:49;;;;;;;3.52;2.50;;;;;;;26.53;34.35;101231.97;1757893;80;21054;-85
2022/07/20 08:09:16;;;;;;;6.70;2.83;;;;;;;26.54;34.36;101227.45;1750272;80;21038;-82
2022/07/20 08:11:42;;;;;;;4.67;2.60;;;;;;;26.54;34.37;101224.66;1771295;80;21560;-83
2022/07/20 08:14:08;;;;;;;8.50;3.08;;;;;;;26.55;34.34;101224.08;1762672;80;21043;-84
2022/07/20 08:16:35;;;;;;;7.35;2.62;;;;;;;26.56;34.32;101221.53;1757724;80;21046;-85
2022/07/20 08:19:01;;;;;;;6.47;2.50;;;;;;;26.57;34.24;101218.95;1758021;80;21010;-82
2022/07/20 08:21:28;;;;;;;5.17;2.65;;;;;;;26.58;34.19;101223.37;1757639;80;21050;-82
2022/07/20 08:23:54;;;;;;;6.17;2.15;;;;;;;26.58;34.12;101217.79;1751715;80;21627;-85
2022/07/20 08:26:21;;;;;;;8.15;2.35;;;;;;;26.60;34.06;101216.87;1757451;80;22095;-85
2022/07/20 08:28:47;;;;;;;6.62;2.77;;;;;;;26.61;34.04;101224.88;1743319;80;21034;-83
2022/07/20 08:31:14;;;;;;;4.97;2.50;;;;;;;26.63;34.09;101218.96;1746768;80;21110;-83
2022/07/20 08:33:40;;;;;;;4.78;2.27;;;;;;;26.64;34.17;101222.81;1757843;80;21604;-85
2022/07/20 08:36:07;;;;;;;5.15;2.62;;;;;;;26.67;34.15;101216.52;1731032;81;21122;-86
2022/07/20 08:38:33;;;;;;;6.15;2.45;;;;;;;26.68;34.12;101215.94;1748405;80;21431;-86
2022/07/20 08:41:00;;;;;;;8.10;2.45;;;;;;;26.68;34.15;101214.55;1758371;81;21540;-86
2022/07/20 08:43:26;;;;;;;7.25;2.65;;;;;;;26.69;34.20;101211.39;1775207;80;20955;-84
2022/07/20 08:45:53;;;;;;;8.63;2.77;;;;;;;26.71;34.27;101214.66;1758483;80;21043;-84
2022/07/20 08:48:19;;;;;;;7.97;2.47;;;;;;;26.72;34.35;101209.89;1761438;80;21132;-84
2022/07/20 08:50:46;;;;;;;7.97;2.75;;;;;;;26.73;34.38;101203.94;1770614;80;21055;-83
2022/07/20 08:53:12;;;;;;;7.10;2.60;;;;;;;26.74;34.42;101196.38;1758508;80;21572;-87
2022/07/20 08:55:39;;;;;;;7.47;2.60;;;;;;;26.76;34.48;101203.27;1769450;80;21099;-86
2022/07/20 08:58:05;;;;;;;7.55;2.62;;;;;;;26.77;34.44;101197.09;1758821;80;21070;-84
2022/07/20 09:00:34;;;;;;;8.48;2.40;;;;;;;26.78;34.42;101186.96;1758924;80;21178;-84
2022/07/20 09:03:05;;;;;;;7.12;2.52;;;;;;;26.80;34.39;101183.83;1758228;80;21275;-85
2022/07/20 09:05:34;;;;;;;8.00;2.60;;;;;;;26.81;34.51;101182.67;1757939;80;21089;-87
2022/07/20 09:08:01;;;;;;;7.10;2.33;;;;;;;26.81;34.55;101178.48;1757328;80;21066;-83
2022/07/20 09:10:33;;;;;;;6.28;2.52;;;;;;;26.83;34.59;101179.75;1753174;80;21101;-84
2022/07/20 09:13:07;;;;;;;8.33;3.37;;;;;;;26.84;34.64;101186.15;1749183;80;22315;-83
2022/07/20 09:15:48;;;;;;;8.28;2.87;;;;;;;26.83;34.62;101178.35;1757407;80;21053;-83
2022/07/20 09:18:32;;;;;;;4.67;2.83;;;;;;;26.83;34.62;101176.95;1748163;81;21109;-84
2022/07/20 09:21:03;;;;;;;5.67;2.30;;;;;;;26.83;34.58;101169.16;1746110;80;21580;-85
2022/07/20 09:23:34;;;;;;;5.80;2.40;;;;;;;26.83;34.58;101174.16;1756263;80;21062;-84
2022/07/20 09:26:12;;;;;;;7.78;2.83;;;;;;;26.84;34.64;101172.19;1759179;80;21065;-86
2022/07/20 09:28:49;;;;;;;6.28;2.27;;;;;;;26.83;34.63;101164.39;1715586;82;21144;-84
2022/07/20 09:31:21;;;;;;;5.65;3.00;;;;;;;26.86;34.67;101162.11;1729069;81;21099;-86
2022/07/20 09:34:08;;;;;;;6.78;2.33;;;;;;;26.87;34.68;101155.34;1726715;82;21030;-83
2022/07/20 09:36:41;;;;;;;7.50;2.92;;;;;;;26.86;34.71;101153.16;1728087;81;21102;-85
2022/07/20 09:39:16;;;;;;;5.47;2.58;;;;;;;26.88;34.77;101154.17;1725349;82;21151;-84
2022/07/20 09:41:53;;;;;;;7.40;2.62;;;;;;;26.87;34.87;101146.95;1727926;81;21016;-84
2022/07/20 09:44:29;;;;;;;8.65;3.17;;;;;;;26.86;34.94;101146.17;1726245;82;21089;-84
2022/07/20 09:46:56;;;;;;;6.75;2.77;;;;;;;26.86;35.00;101148.15;1728560;81;21572;-84
2022/07/20 09:49:32;;;;;;;6.30;3.08;;;;;;;26.86;34.94;101143.38;1721832;81;21103;-84
2022/07/20 09:52:00;;;;;;;6.87;2.83;;;;;;;26.87;34.99;101136.61;1727587;81;21124;-82
2022/07/20 09:54:26;;;;;;;9.23;2.72;;;;;;;26.89;35.00;101139.06;1730699;81;21059;-83
2022/07/20 09:56:54;;;;;;;5.78;2.72;;;;;;;26.88;35.00;101137.42;1728988;81;21008;-82
2022/07/20 09:59:21;;;;;;;6.10;2.98;;;;;;;26.89;35.05;101130.69;1729773;81;21564;-82
2022/07/20 10:01:53;;;;;;;5.15;2.50;;;;;;;26.90;35.00;101126.73;1750395;81;21068;-83
2022/07/20 10:04:23;;;;;;;5.53;2.95;;;;;;;26.90;35.00;101124.76;1729818;81;21075;-83
2022/07/20 10:06:51;;;;;;;7.80;3.05;;;;;;;26.91;35.00;101118.56;1730121;81;21066;-80
2022/07/20 10:09:18;;;;;;;8.30;3.02;;;;;;;26.91;35.01;101115.19;1723899;81;21044;-83
2022/07/20 10:11:45;;;;;;;6.05;2.83;;;;;;;26.93;34.98;101108.69;1730690;81;21086;-81
2022/07/20 10:14:11;;;;;;;8.43;3.27;;;;;;;26.93;34.92;101114.27;1729926;81;21093;-83
2022/07/20 10:16:50;;;;;;;12.10;3.87;;;;;;;26.93;34.88;101107.87;1726945;81;21110;-82
2022/07/20 10:19:16;;;;;;;6.53;3.85;;;;;;;26.92;34.85;101113.22;1738418;81;21157;-82
2022/07/20 10:21:53;;;;;;;5.55;2.95;;;;;;;26.94;34.80;101108.11;1724280;81;21090;-82
2022/07/20 10:24:30;;;;;;;8.15;3.15;;;;;;;26.93;34.78;101102.28;1728123;81;21056;-79
2022/07/20 10:27:25;;;;;;;6.10;2.95;;;;;;;26.93;34.74;101096.70;1720995;81;21024;-83
2022/07/20 10:29:53;;;;;;;6.12;2.85;;;;;;;26.93;34.71;101090.53;1701106;82;21339;-83
2022/07/20 10:32:28;;;;;;;6.60;3.20;;;;;;;26.92;34.65;101083.31;1692465;83;21518;-83
2022/07/20 10:35:02;;;;;;;9.05;3.00;;;;;;;26.93;34.60;101074.36;1692315;84;21079;-84
2022/07/20 10:37:40;;;;;;;4.47;2.45;;;;;;;26.92;34.47;101070.75;1695928;83;21072;-84
2022/07/20 10:40:16;;;;;;;11.73;3.12;;;;;;;26.93;34.39;101064.59;1687572;83;21115;-83
2022/07/20 10:43:01;;;;;;;7.10;3.12;;;;;;;26.93;34.36;101070.98;1691303;84;21123;-84
2022/07/20 10:45:28;;;;;;;6.10;2.87;;;;;;;26.93;34.33;101052.84;1635943;84;21035;-86
2022/07/20 10:48:12;;;;;;;5.78;2.42;;;;;;;26.94;34.36;101052.27;1692614;84;21063;-83
2022/07/20 10:50:49;;;;;;;5.97;2.65;;;;;;;26.95;34.43;101053.86;1694173;82;21565;-84
2022/07/20 10:53:24;;;;;;;3.15;2.05;;;;;;;26.95;34.41;101048.28;1693699;81;21099;-83
2022/07/20 10:55:58;;;;;;;3.77;2.20;;;;;;;26.95;34.40;101051.89;1689281;82;21209;-83
2022/07/20 10:58:29;;;;;;;5.20;2.33;;;;;;;26.96;34.26;101048.52;1718341;81;20968;-83
2022/07/20 11:01:00;;;;;;;4.90;2.20;;;;;;;26.96;34.28;101042.34;1703832;82;21335;-83
2022/07/20 11:03:44;;;;;;;3.12;2.30;;;;;;;26.97;34.25;101040.37;1716107;81;21111;-81
2022/07/20 11:06:16;;;;;;;8.33;2.40;;;;;;;26.96;34.25;101035.38;1717297;81;21052;-84
2022/07/20 11:08:53;;;;;;;3.20;2.20;;;;;;;26.96;34.23;101033.16;1716825;82;21736;-81
2022/07/20 11:11:26;;;;;;;5.42;2.08;;;;;;;26.95;34.23;101032.34;1714860;81;21567;-83
2022/07/20 11:13:53;;;;;;;4.17;2.15;;;;;;;26.95;34.25;101023.97;1695978;82;21814;-84
2022/07/20 11:16:25;;;;;;;5.08;2.30;;;;;;;26.96;34.26;101020.59;1719353;83;21063;-80
2022/07/20 11:18:51;;;;;;;4.78;2.10;;;;;;;26.97;34.31;101017.45;1718884;81;21087;-82
2022/07/20 11:21:20;;;;;;;4.20;1.98;;;;;;;26.97;34.32;101014.66;1718278;83;21612;-83
2022/07/20 11:23:50;;;;;;;4.75;2.37;;;;;;;26.97;34.32;101013.27;1722134;81;21076;-82
2022/07/20 11:26:18;;;;;;;3.80;1.70;;;;;;;26.98;34.22;101013.50;1718248;81;21041;-84
2022/07/20 11:28:48;;;;;;;4.33;2.20;;;;;;;26.99;34.15;101016.50;1717108;81;21127;-82